sensor_id;sensor_type;location;lat;lon;timestamp;P1;durP1;ratioP1;P2;durP2;ratioP2
37141;SDS011;23041;49.816;20.092;2022-09-24T00:01:27;12.95;;;11.45;;
37141;SDS011;23041;49.816;20.092;2022-09-24T00:03:57;14.75;;;12.23;;
37141;SDS011;23041;49.816;20.092;2022-09-24T00:06:32;14.85;;;12.23;;
37141;SDS011;23041;49.816;20.092;2022-09-24T00:09:05;16.27;;;13.03;;
37141;SDS011;23041;49.816;20.092;2022-09-24T00:11:32;29.35;;;18.52;;
37141;SDS011;23041;49.816;20.092;2022-09-24T00:13:58;21.12;;;15.15;;
37141;SDS011;23041;49.816;20.092;2022-09-24T00:16:26;16.30;;;12.53;;
37141;SDS011;23041;49.816;20.092;2022-09-24T00:18:56;16.90;;;11.12;;
37141;SDS011;23041;49.816;20.092;2022-09-24T00:21:25;15.03;;;11.75;;
37141;SDS011;23041;49.816;20.092;2022-09-24T00:23:58;17.90;;;12.53;;
37141;SDS011;23041;49.816;20.092;2022-09-24T00:26:27;19.23;;;12.93;;
37141;SDS011;23041;49.816;20.092;2022-09-24T00:29:14;17.32;;;13.25;;
37141;SDS011;23041;49.816;20.092;2022-09-24T00:31:44;16.75;;;11.83;;
37141;SDS011;23041;49.816;20.092;2022-09-24T00:34:11;13.55;;;11.73;;
37141;SDS011;23041;49.816;20.092;2022-09-24T00:36:37;15.03;;;11.25;;
37141;SDS011;23041;49.816;20.092;2022-09-24T00:39:04;13.03;;;11.57;;
37141;SDS011;23041;49.816;20.092;2022-09-24T00:41:32;16.23;;;11.75;;
37141;SDS011;23041;49.816;20.092;2022-09-24T00:44:38;16.32;;;13.48;;
37141;SDS011;23041;49.816;20.092;2022-09-24T00:49:44;15.55;;;12.18;;
37141;SDS011;23041;49.816;20.092;2022-09-24T00:52:14;12.35;;;10.88;;
37141;SDS011;23041;49.816;20.092;2022-09-24T00:54:44;12.20;;;10.38;;
37141;SDS011;23041;49.816;20.092;2022-09-24T00:57:11;12.43;;;9.83;;
37141;SDS011;23041;49.816;20.092;2022-09-24T00:59:39;13.28;;;10.88;;
37141;SDS011;23041;49.816;20.092;2022-09-24T01:02:07;12.85;;;10.32;;
37141;SDS011;23041;49.816;20.092;2022-09-24T01:04:33;14.33;;;10.60;;
37141;SDS011;23041;49.816;20.092;2022-09-24T01:07:00;13.83;;;10.55;;
37141;SDS011;23041;49.816;20.092;2022-09-24T01:09:26;14.25;;;11.05;;
37141;SDS011;23041;49.816;20.092;2022-09-24T01:14:49;12.55;;;9.70;;
37141;SDS011;23041;49.816;20.092;2022-09-24T01:23:55;20.92;;;12.80;;
37141;SDS011;23041;49.816;20.092;2022-09-24T01:31:51;17.73;;;13.03;;
37141;SDS011;23041;49.816;20.092;2022-09-24T01:34:26;13.30;;;11.75;;
37141;SDS011;23041;49.816;20.092;2022-09-24T01:36:57;17.12;;;12.20;;
37141;SDS011;23041;49.816;20.092;2022-09-24T01:39:27;14.35;;;9.68;;
37141;SDS011;23041;49.816;20.092;2022-09-24T01:41:56;13.95;;;10.15;;
37141;SDS011;23041;49.816;20.092;2022-09-24T01:44:23;11.65;;;9.50;;
37141;SDS011;23041;49.816;20.092;2022-09-24T01:46:50;12.90;;;10.48;;
37141;SDS011;23041;49.816;20.092;2022-09-24T01:49:17;14.33;;;11.63;;
37141;SDS011;23041;49.816;20.092;2022-09-24T01:51:49;13.03;;;11.65;;
37141;SDS011;23041;49.816;20.092;2022-09-24T01:56:50;30.90;;;19.20;;
37141;SDS011;23041;49.816;20.092;2022-09-24T01:59:22;15.30;;;12.98;;
37141;SDS011;23041;49.816;20.092;2022-09-24T02:04:50;17.12;;;12.58;;
37141;SDS011;23041;49.816;20.092;2022-09-24T02:07:16;14.90;;;11.43;;
37141;SDS011;23041;49.816;20.092;2022-09-24T02:09:51;14.03;;;11.85;;
37141;SDS011;23041;49.816;20.092;2022-09-24T02:12:22;21.05;;;12.85;;
37141;SDS011;23041;49.816;20.092;2022-09-24T02:15:01;22.17;;;13.90;;
37141;SDS011;23041;49.816;20.092;2022-09-24T02:17:29;11.12;;;8.90;;
37141;SDS011;23041;49.816;20.092;2022-09-24T02:19:59;10.88;;;9.00;;
37141;SDS011;23041;49.816;20.092;2022-09-24T02:22:28;10.82;;;9.25;;
37141;SDS011;23041;49.816;20.092;2022-09-24T02:24:56;12.58;;;8.83;;
37141;SDS011;23041;49.816;20.092;2022-09-24T02:27:26;11.10;;;9.60;;
37141;SDS011;23041;49.816;20.092;2022-09-24T02:29:56;17.98;;;12.98;;
37141;SDS011;23041;49.816;20.092;2022-09-24T02:32:25;11.33;;;9.93;;
37141;SDS011;23041;49.816;20.092;2022-09-24T02:34:56;14.47;;;9.55;;
37141;SDS011;23041;49.816;20.092;2022-09-24T02:37:26;16.00;;;11.45;;
37141;SDS011;23041;49.816;20.092;2022-09-24T02:39:54;13.45;;;10.45;;
37141;SDS011;23041;49.816;20.092;2022-09-24T02:42:20;11.78;;;9.98;;
37141;SDS011;23041;49.816;20.092;2022-09-24T02:44:47;11.48;;;9.63;;
37141;SDS011;23041;49.816;20.092;2022-09-24T02:47:13;10.10;;;8.48;;
37141;SDS011;23041;49.816;20.092;2022-09-24T02:49:40;11.97;;;8.50;;
37141;SDS011;23041;49.816;20.092;2022-09-24T02:52:07;11.43;;;9.48;;
37141;SDS011;23041;49.816;20.092;2022-09-24T02:54:34;10.98;;;9.60;;
37141;SDS011;23041;49.816;20.092;2022-09-24T02:57:01;10.75;;;9.73;;
37141;SDS011;23041;49.816;20.092;2022-09-24T02:59:27;12.35;;;9.35;;
37141;SDS011;23041;49.816;20.092;2022-09-24T03:01:53;11.73;;;9.50;;
37141;SDS011;23041;49.816;20.092;2022-09-24T03:04:19;12.30;;;9.98;;
37141;SDS011;23041;49.816;20.092;2022-09-24T03:06:46;10.13;;;9.05;;
37141;SDS011;23041;49.816;20.092;2022-09-24T03:09:12;13.48;;;10.43;;
37141;SDS011;23041;49.816;20.092;2022-09-24T03:11:39;12.07;;;9.45;;
37141;SDS011;23041;49.816;20.092;2022-09-24T03:14:05;10.78;;;8.88;;
37141;SDS011;23041;49.816;20.092;2022-09-24T03:16:32;11.80;;;9.08;;
37141;SDS011;23041;49.816;20.092;2022-09-24T03:18:58;9.63;;;8.23;;
37141;SDS011;23041;49.816;20.092;2022-09-24T03:21:24;10.98;;;8.88;;
37141;SDS011;23041;49.816;20.092;2022-09-24T03:23:51;10.23;;;8.73;;
37141;SDS011;23041;49.816;20.092;2022-09-24T03:26:17;10.82;;;9.60;;
37141;SDS011;23041;49.816;20.092;2022-09-24T03:28:44;10.23;;;8.88;;
37141;SDS011;23041;49.816;20.092;2022-09-24T03:31:11;13.85;;;9.83;;
37141;SDS011;23041;49.816;20.092;2022-09-24T03:33:39;10.98;;;9.00;;
37141;SDS011;23041;49.816;20.092;2022-09-24T03:36:11;11.43;;;9.38;;
37141;SDS011;23041;49.816;20.092;2022-09-24T03:38:47;11.53;;;10.10;;
37141;SDS011;23041;49.816;20.092;2022-09-24T03:41:17;9.80;;;8.80;;
37141;SDS011;23041;49.816;20.092;2022-09-24T03:43:43;9.68;;;8.48;;
37141;SDS011;23041;49.816;20.092;2022-09-24T03:46:10;9.98;;;8.33;;
37141;SDS011;23041;49.816;20.092;2022-09-24T03:48:38;10.18;;;7.60;;
37141;SDS011;23041;49.816;20.092;2022-09-24T03:51:12;9.20;;;6.90;;
37141;SDS011;23041;49.816;20.092;2022-09-24T03:53:43;11.18;;;8.10;;
37141;SDS011;23041;49.816;20.092;2022-09-24T03:56:10;10.03;;;8.73;;
37141;SDS011;23041;49.816;20.092;2022-09-24T03:58:37;10.53;;;8.38;;
37141;SDS011;23041;49.816;20.092;2022-09-24T04:01:08;10.85;;;8.45;;
37141;SDS011;23041;49.816;20.092;2022-09-24T04:03:32;10.50;;;8.58;;
37141;SDS011;23041;49.816;20.092;2022-09-24T04:06:00;9.88;;;8.88;;
37141;SDS011;23041;49.816;20.092;2022-09-24T04:08:27;10.03;;;8.60;;
37141;SDS011;23041;49.816;20.092;2022-09-24T04:10:56;10.13;;;8.33;;
37141;SDS011;23041;49.816;20.092;2022-09-24T04:13:22;10.15;;;8.98;;
37141;SDS011;23041;49.816;20.092;2022-09-24T04:15:49;10.23;;;9.10;;
37141;SDS011;23041;49.816;20.092;2022-09-24T04:18:16;11.78;;;8.73;;
37141;SDS011;23041;49.816;20.092;2022-09-24T04:20:43;9.08;;;7.33;;
37141;SDS011;23041;49.816;20.092;2022-09-24T04:23:10;9.93;;;7.33;;
37141;SDS011;23041;49.816;20.092;2022-09-24T04:25:36;9.30;;;7.95;;
37141;SDS011;23041;49.816;20.092;2022-09-24T04:28:05;10.30;;;8.83;;
37141;SDS011;23041;49.816;20.092;2022-09-24T04:30:33;9.68;;;8.68;;
37141;SDS011;23041;49.816;20.092;2022-09-24T04:33:01;9.65;;;8.40;;
37141;SDS011;23041;49.816;20.092;2022-09-24T04:35:28;10.00;;;8.38;;
37141;SDS011;23041;49.816;20.092;2022-09-24T04:37:57;17.17;;;8.93;;
37141;SDS011;23041;49.816;20.092;2022-09-24T04:40:24;11.48;;;9.50;;
37141;SDS011;23041;49.816;20.092;2022-09-24T04:42:51;8.88;;;7.95;;
37141;SDS011;23041;49.816;20.092;2022-09-24T04:45:18;8.50;;;7.62;;
37141;SDS011;23041;49.816;20.092;2022-09-24T04:47:46;9.55;;;7.58;;
37141;SDS011;23041;49.816;20.092;2022-09-24T04:50:23;7.75;;;6.92;;
37141;SDS011;23041;49.816;20.092;2022-09-24T04:52:53;62.53;;;56.23;;
37141;SDS011;23041;49.816;20.092;2022-09-24T04:55:21;30.00;;;27.13;;
37141;SDS011;23041;49.816;20.092;2022-09-24T04:57:48;36.15;;;32.80;;
37141;SDS011;23041;49.816;20.092;2022-09-24T05:00:16;16.70;;;14.87;;
37141;SDS011;23041;49.816;20.092;2022-09-24T05:02:45;12.85;;;11.60;;
37141;SDS011;23041;49.816;20.092;2022-09-24T05:05:11;11.22;;;9.70;;
37141;SDS011;23041;49.816;20.092;2022-09-24T05:07:38;12.15;;;10.45;;
37141;SDS011;23041;49.816;20.092;2022-09-24T05:10:07;11.83;;;9.73;;
37141;SDS011;23041;49.816;20.092;2022-09-24T05:12:34;10.40;;;9.20;;
37141;SDS011;23041;49.816;20.092;2022-09-24T05:15:00;8.63;;;7.65;;
37141;SDS011;23041;49.816;20.092;2022-09-24T05:17:27;9.30;;;7.37;;
37141;SDS011;23041;49.816;20.092;2022-09-24T05:19:53;8.70;;;7.83;;
37141;SDS011;23041;49.816;20.092;2022-09-24T05:22:22;9.73;;;8.40;;
37141;SDS011;23041;49.816;20.092;2022-09-24T05:24:50;9.15;;;8.23;;
37141;SDS011;23041;49.816;20.092;2022-09-24T05:27:16;11.70;;;8.83;;
37141;SDS011;23041;49.816;20.092;2022-09-24T05:29:44;9.93;;;8.33;;
37141;SDS011;23041;49.816;20.092;2022-09-24T05:32:15;11.45;;;8.63;;
37141;SDS011;23041;49.816;20.092;2022-09-24T05:34:43;10.23;;;8.05;;
37141;SDS011;23041;49.816;20.092;2022-09-24T05:37:11;8.78;;;7.90;;
37141;SDS011;23041;49.816;20.092;2022-09-24T05:39:39;9.95;;;8.95;;
37141;SDS011;23041;49.816;20.092;2022-09-24T05:42:08;9.68;;;7.60;;
37141;SDS011;23041;49.816;20.092;2022-09-24T05:44:37;9.98;;;7.97;;
37141;SDS011;23041;49.816;20.092;2022-09-24T05:47:03;9.05;;;7.45;;
37141;SDS011;23041;49.816;20.092;2022-09-24T05:49:30;10.58;;;7.78;;
37141;SDS011;23041;49.816;20.092;2022-09-24T05:51:56;8.70;;;7.45;;
37141;SDS011;23041;49.816;20.092;2022-09-24T05:54:23;8.58;;;7.50;;
37141;SDS011;23041;49.816;20.092;2022-09-24T05:56:49;8.53;;;7.70;;
37141;SDS011;23041;49.816;20.092;2022-09-24T05:59:16;8.75;;;7.92;;
37141;SDS011;23041;49.816;20.092;2022-09-24T06:01:42;8.80;;;7.75;;
37141;SDS011;23041;49.816;20.092;2022-09-24T06:04:10;8.83;;;7.65;;
37141;SDS011;23041;49.816;20.092;2022-09-24T06:06:37;7.90;;;7.20;;
37141;SDS011;23041;49.816;20.092;2022-09-24T06:09:03;8.13;;;7.15;;
37141;SDS011;23041;49.816;20.092;2022-09-24T06:11:30;7.80;;;7.00;;
37141;SDS011;23041;49.816;20.092;2022-09-24T06:16:32;9.10;;;7.08;;
37141;SDS011;23041;49.816;20.092;2022-09-24T06:18:59;8.30;;;7.50;;
37141;SDS011;23041;49.816;20.092;2022-09-24T06:21:25;7.50;;;6.80;;
37141;SDS011;23041;49.816;20.092;2022-09-24T06:23:52;8.15;;;7.00;;
37141;SDS011;23041;49.816;20.092;2022-09-24T06:26:19;7.80;;;7.05;;
37141;SDS011;23041;49.816;20.092;2022-09-24T06:28:45;7.22;;;6.58;;
37141;SDS011;23041;49.816;20.092;2022-09-24T06:31:12;7.58;;;6.90;;
37141;SDS011;23041;49.816;20.092;2022-09-24T06:33:38;7.40;;;6.70;;
37141;SDS011;23041;49.816;20.092;2022-09-24T06:36:05;7.42;;;6.72;;
37141;SDS011;23041;49.816;20.092;2022-09-24T06:38:32;7.33;;;6.55;;
37141;SDS011;23041;49.816;20.092;2022-09-24T06:41:00;7.22;;;6.53;;
37141;SDS011;23041;49.816;20.092;2022-09-24T06:43:29;7.78;;;6.70;;
37141;SDS011;23041;49.816;20.092;2022-09-24T06:45:57;6.78;;;6.28;;
37141;SDS011;23041;49.816;20.092;2022-09-24T06:48:27;7.10;;;6.40;;
37141;SDS011;23041;49.816;20.092;2022-09-24T06:50:53;7.05;;;6.45;;
37141;SDS011;23041;49.816;20.092;2022-09-24T06:53:20;7.15;;;6.50;;
37141;SDS011;23041;49.816;20.092;2022-09-24T06:55:47;6.87;;;6.28;;
37141;SDS011;23041;49.816;20.092;2022-09-24T06:58:15;7.75;;;6.45;;
37141;SDS011;23041;49.816;20.092;2022-09-24T07:00:52;6.97;;;6.37;;
37141;SDS011;23041;49.816;20.092;2022-09-24T07:03:23;6.90;;;6.30;;
37141;SDS011;23041;49.816;20.092;2022-09-24T07:05:51;6.58;;;6.08;;
37141;SDS011;23041;49.816;20.092;2022-09-24T07:08:17;6.72;;;6.12;;
37141;SDS011;23041;49.816;20.092;2022-09-24T07:10:44;7.08;;;6.47;;
37141;SDS011;23041;49.816;20.092;2022-09-24T07:13:14;6.83;;;6.22;;
37141;SDS011;23041;49.816;20.092;2022-09-24T07:15:41;7.70;;;6.30;;
37141;SDS011;23041;49.816;20.092;2022-09-24T07:18:09;6.75;;;6.08;;
37141;SDS011;23041;49.816;20.092;2022-09-24T07:20:36;6.25;;;5.65;;
37141;SDS011;23041;49.816;20.092;2022-09-24T07:23:03;9.58;;;6.80;;
37141;SDS011;23041;49.816;20.092;2022-09-24T07:25:34;6.08;;;5.58;;
37141;SDS011;23041;49.816;20.092;2022-09-24T07:28:02;6.90;;;6.35;;
37141;SDS011;23041;49.816;20.092;2022-09-24T07:30:35;6.67;;;5.92;;
37141;SDS011;23041;49.816;20.092;2022-09-24T07:33:03;7.30;;;6.47;;
37141;SDS011;23041;49.816;20.092;2022-09-24T07:35:30;6.12;;;5.62;;
37141;SDS011;23041;49.816;20.092;2022-09-24T07:40:30;6.20;;;5.58;;
37141;SDS011;23041;49.816;20.092;2022-09-24T07:42:57;5.97;;;5.47;;
37141;SDS011;23041;49.816;20.092;2022-09-24T07:45:24;5.50;;;5.00;;
37141;SDS011;23041;49.816;20.092;2022-09-24T07:50:27;5.30;;;4.90;;
37141;SDS011;23041;49.816;20.092;2022-09-24T07:52:55;5.22;;;4.78;;
37141;SDS011;23041;49.816;20.092;2022-09-24T07:55:22;5.30;;;4.80;;
37141;SDS011;23041;49.816;20.092;2022-09-24T08:00:41;5.25;;;4.37;;
37141;SDS011;23041;49.816;20.092;2022-09-24T08:03:07;4.78;;;3.87;;
37141;SDS011;23041;49.816;20.092;2022-09-24T08:05:34;4.55;;;4.15;;
37141;SDS011;23041;49.816;20.092;2022-09-24T08:08:00;4.10;;;3.72;;
37141;SDS011;23041;49.816;20.092;2022-09-24T08:10:27;4.15;;;3.55;;
37141;SDS011;23041;49.816;20.092;2022-09-24T08:12:53;3.50;;;3.30;;
37141;SDS011;23041;49.816;20.092;2022-09-24T08:15:22;4.00;;;3.70;;
37141;SDS011;23041;49.816;20.092;2022-09-24T08:17:49;4.90;;;4.37;;
37141;SDS011;23041;49.816;20.092;2022-09-24T08:20:15;4.53;;;4.08;;
37141;SDS011;23041;49.816;20.092;2022-09-24T08:22:42;5.10;;;4.37;;
37141;SDS011;23041;49.816;20.092;2022-09-24T08:25:08;5.97;;;5.28;;
37141;SDS011;23041;49.816;20.092;2022-09-24T08:27:35;4.58;;;4.17;;
37141;SDS011;23041;49.816;20.092;2022-09-24T08:30:03;7.50;;;4.87;;
37141;SDS011;23041;49.816;20.092;2022-09-24T08:32:30;5.65;;;5.12;;
37141;SDS011;23041;49.816;20.092;2022-09-24T08:34:57;3.85;;;3.35;;
37141;SDS011;23041;49.816;20.092;2022-09-24T08:37:23;3.20;;;2.90;;
37141;SDS011;23041;49.816;20.092;2022-09-24T08:39:50;3.20;;;3.00;;
37141;SDS011;23041;49.816;20.092;2022-09-24T08:42:27;3.42;;;3.12;;
37141;SDS011;23041;49.816;20.092;2022-09-24T08:45:00;3.00;;;2.80;;
37141;SDS011;23041;49.816;20.092;2022-09-24T08:47:50;3.17;;;2.98;;
37141;SDS011;23041;49.816;20.092;2022-09-24T08:50:21;4.00;;;3.58;;
37141;SDS011;23041;49.816;20.092;2022-09-24T08:53:10;4.47;;;4.08;;
37141;SDS011;23041;49.816;20.092;2022-09-24T08:55:52;4.10;;;3.80;;
37141;SDS011;23041;49.816;20.092;2022-09-24T09:01:27;4.62;;;4.22;;
37141;SDS011;23041;49.816;20.092;2022-09-24T09:04:17;3.87;;;3.47;;
37141;SDS011;23041;49.816;20.092;2022-09-24T09:12:39;3.87;;;3.40;;
37141;SDS011;23041;49.816;20.092;2022-09-24T09:15:22;3.30;;;3.10;;
37141;SDS011;23041;49.816;20.092;2022-09-24T09:18:02;3.47;;;3.17;;
37141;SDS011;23041;49.816;20.092;2022-09-24T09:20:46;3.60;;;3.20;;
37141;SDS011;23041;49.816;20.092;2022-09-24T09:25:45;2.22;;;2.12;;
37141;SDS011;23041;49.816;20.092;2022-09-24T09:28:17;2.60;;;2.40;;
37141;SDS011;23041;49.816;20.092;2022-09-24T09:30:47;3.67;;;3.15;;
37141;SDS011;23041;49.816;20.092;2022-09-24T09:36:21;2.15;;;2.00;;
37141;SDS011;23041;49.816;20.092;2022-09-24T09:42:30;4.05;;;2.60;;
37141;SDS011;23041;49.816;20.092;2022-09-24T09:45:02;7.67;;;4.35;;
37141;SDS011;23041;49.816;20.092;2022-09-24T09:47:47;2.47;;;2.27;;
37141;SDS011;23041;49.816;20.092;2022-09-24T09:50:36;2.30;;;2.10;;
37141;SDS011;23041;49.816;20.092;2022-09-24T09:53:25;1.95;;;1.85;;
37141;SDS011;23041;49.816;20.092;2022-09-24T09:55:58;2.00;;;1.80;;
37141;SDS011;23041;49.816;20.092;2022-09-24T09:58:32;2.33;;;2.02;;
37141;SDS011;23041;49.816;20.092;2022-09-24T10:01:06;2.60;;;2.40;;
37141;SDS011;23041;49.816;20.092;2022-09-24T10:09:05;2.00;;;1.90;;
37141;SDS011;23041;49.816;20.092;2022-09-24T10:11:45;2.50;;;2.40;;
37141;SDS011;23041;49.816;20.092;2022-09-24T10:14:13;3.83;;;3.10;;
37141;SDS011;23041;49.816;20.092;2022-09-24T10:16:44;6.35;;;5.35;;
37141;SDS011;23041;49.816;20.092;2022-09-24T10:19:19;3.80;;;3.40;;
37141;SDS011;23041;49.816;20.092;2022-09-24T10:21:49;6.22;;;5.62;;
37141;SDS011;23041;49.816;20.092;2022-09-24T10:24:19;3.47;;;3.17;;
37141;SDS011;23041;49.816;20.092;2022-09-24T10:26:51;3.75;;;3.20;;
37141;SDS011;23041;49.816;20.092;2022-09-24T10:29:19;3.10;;;2.87;;
37141;SDS011;23041;49.816;20.092;2022-09-24T10:32:12;3.45;;;3.25;;
37141;SDS011;23041;49.816;20.092;2022-09-24T10:34:52;3.45;;;3.15;;
37141;SDS011;23041;49.816;20.092;2022-09-24T10:37:25;3.20;;;2.90;;
37141;SDS011;23041;49.816;20.092;2022-09-24T10:39:57;4.08;;;3.77;;
37141;SDS011;23041;49.816;20.092;2022-09-24T10:42:30;6.50;;;4.78;;
37141;SDS011;23041;49.816;20.092;2022-09-24T10:44:57;4.92;;;4.22;;
37141;SDS011;23041;49.816;20.092;2022-09-24T10:50:36;5.10;;;3.65;;
37141;SDS011;23041;49.816;20.092;2022-09-24T10:59:11;3.62;;;3.35;;
37141;SDS011;23041;49.816;20.092;2022-09-24T11:09:58;2.92;;;2.72;;
37141;SDS011;23041;49.816;20.092;2022-09-24T11:24:32;4.10;;;3.70;;
37141;SDS011;23041;49.816;20.092;2022-09-24T11:30:24;3.50;;;3.20;;
37141;SDS011;23041;49.816;20.092;2022-09-24T11:36:05;3.40;;;3.20;;
37141;SDS011;23041;49.816;20.092;2022-09-24T11:44:53;2.90;;;2.70;;
37141;SDS011;23041;49.816;20.092;2022-09-24T11:50:24;3.25;;;2.95;;
37141;SDS011;23041;49.816;20.092;2022-09-24T11:53:24;4.30;;;2.70;;
37141;SDS011;23041;49.816;20.092;2022-09-24T11:55:47;2.83;;;2.50;;
37141;SDS011;23041;49.816;20.092;2022-09-24T11:58:26;2.10;;;2.00;;
37141;SDS011;23041;49.816;20.092;2022-09-24T12:06:31;2.02;;;1.92;;
37141;SDS011;23041;49.816;20.092;2022-09-24T12:09:12;2.42;;;2.10;;
37141;SDS011;23041;49.816;20.092;2022-09-24T12:14:24;2.80;;;2.60;;
37141;SDS011;23041;49.816;20.092;2022-09-24T12:17:03;2.45;;;2.35;;
37141;SDS011;23041;49.816;20.092;2022-09-24T12:19:39;2.85;;;2.70;;
37141;SDS011;23041;49.816;20.092;2022-09-24T12:22:08;2.47;;;2.35;;
37141;SDS011;23041;49.816;20.092;2022-09-24T12:27:09;2.83;;;2.58;;
37141;SDS011;23041;49.816;20.092;2022-09-24T12:29:43;2.75;;;2.55;;
37141;SDS011;23041;49.816;20.092;2022-09-24T12:38:06;2.98;;;2.77;;
37141;SDS011;23041;49.816;20.092;2022-09-24T12:46:41;5.47;;;4.55;;
37141;SDS011;23041;49.816;20.092;2022-09-24T12:52:02;4.25;;;3.85;;
37141;SDS011;23041;49.816;20.092;2022-09-24T12:54:37;4.47;;;3.40;;
37141;SDS011;23041;49.816;20.092;2022-09-24T12:57:18;3.40;;;3.10;;
37141;SDS011;23041;49.816;20.092;2022-09-24T13:02:22;3.67;;;3.40;;
37141;SDS011;23041;49.816;20.092;2022-09-24T13:07:41;3.65;;;3.40;;
37141;SDS011;23041;49.816;20.092;2022-09-24T13:12:49;4.37;;;3.42;;
37141;SDS011;23041;49.816;20.092;2022-09-24T13:15:25;4.78;;;3.55;;
37141;SDS011;23041;49.816;20.092;2022-09-24T13:18:04;3.37;;;3.10;;
37141;SDS011;23041;49.816;20.092;2022-09-24T13:20:37;3.52;;;3.25;;
37141;SDS011;23041;49.816;20.092;2022-09-24T13:25:56;4.20;;;3.80;;
37141;SDS011;23041;49.816;20.092;2022-09-24T13:28:28;4.28;;;3.35;;
37141;SDS011;23041;49.816;20.092;2022-09-24T13:31:09;3.67;;;3.37;;
37141;SDS011;23041;49.816;20.092;2022-09-24T13:33:41;3.65;;;3.35;;
37141;SDS011;23041;49.816;20.092;2022-09-24T13:36:27;3.85;;;3.52;;
37141;SDS011;23041;49.816;20.092;2022-09-24T13:39:12;4.15;;;3.85;;
37141;SDS011;23041;49.816;20.092;2022-09-24T13:42:03;4.72;;;4.15;;
37141;SDS011;23041;49.816;20.092;2022-09-24T13:44:47;4.65;;;4.25;;
37141;SDS011;23041;49.816;20.092;2022-09-24T13:50:17;4.75;;;4.40;;
37141;SDS011;23041;49.816;20.092;2022-09-24T13:52:54;5.20;;;4.42;;
37141;SDS011;23041;49.816;20.092;2022-09-24T13:55:28;5.97;;;5.37;;
37141;SDS011;23041;49.816;20.092;2022-09-24T13:58:02;6.40;;;5.37;;
37141;SDS011;23041;49.816;20.092;2022-09-24T14:00:29;6.55;;;4.60;;
37141;SDS011;23041;49.816;20.092;2022-09-24T14:05:45;4.87;;;3.90;;
37141;SDS011;23041;49.816;20.092;2022-09-24T14:08:12;4.67;;;3.80;;
37141;SDS011;23041;49.816;20.092;2022-09-24T14:10:41;4.53;;;4.12;;
37141;SDS011;23041;49.816;20.092;2022-09-24T14:13:25;4.20;;;3.90;;
37141;SDS011;23041;49.816;20.092;2022-09-24T14:18:27;5.83;;;4.55;;
37141;SDS011;23041;49.816;20.092;2022-09-24T14:21:04;6.65;;;5.10;;
37141;SDS011;23041;49.816;20.092;2022-09-24T14:23:51;5.55;;;5.05;;
37141;SDS011;23041;49.816;20.092;2022-09-24T14:26:30;5.22;;;4.72;;
37141;SDS011;23041;49.816;20.092;2022-09-24T14:29:02;4.83;;;4.42;;
37141;SDS011;23041;49.816;20.092;2022-09-24T14:31:31;4.92;;;4.53;;
37141;SDS011;23041;49.816;20.092;2022-09-24T14:34:02;5.03;;;4.62;;
37141;SDS011;23041;49.816;20.092;2022-09-24T14:36:29;5.05;;;4.65;;
37141;SDS011;23041;49.816;20.092;2022-09-24T14:39:00;7.67;;;5.17;;
37141;SDS011;23041;49.816;20.092;2022-09-24T14:41:30;5.50;;;4.97;;
37141;SDS011;23041;49.816;20.092;2022-09-24T14:44:00;7.65;;;5.70;;
37141;SDS011;23041;49.816;20.092;2022-09-24T14:46:38;6.40;;;5.75;;
37141;SDS011;23041;49.816;20.092;2022-09-24T14:49:21;6.25;;;5.65;;
37141;SDS011;23041;49.816;20.092;2022-09-24T14:51:55;7.92;;;7.12;;
37141;SDS011;23041;49.816;20.092;2022-09-24T14:54:26;6.87;;;6.28;;
37141;SDS011;23041;49.816;20.092;2022-09-24T14:57:08;7.80;;;6.05;;
37141;SDS011;23041;49.816;20.092;2022-09-24T14:59:49;5.72;;;5.22;;
37141;SDS011;23041;49.816;20.092;2022-09-24T15:04:55;10.82;;;7.50;;
37141;SDS011;23041;49.816;20.092;2022-09-24T15:07:26;9.98;;;7.35;;
37141;SDS011;23041;49.816;20.092;2022-09-24T15:09:56;7.90;;;6.12;;
37141;SDS011;23041;49.816;20.092;2022-09-24T15:12:25;5.80;;;5.30;;
37141;SDS011;23041;49.816;20.092;2022-09-24T15:14:59;5.87;;;5.05;;
37141;SDS011;23041;49.816;20.092;2022-09-24T15:17:45;4.95;;;4.45;;
37141;SDS011;23041;49.816;20.092;2022-09-24T15:20:11;7.33;;;5.50;;
37141;SDS011;23041;49.816;20.092;2022-09-24T15:22:38;13.48;;;7.85;;
37141;SDS011;23041;49.816;20.092;2022-09-24T15:25:05;11.60;;;7.60;;
37141;SDS011;23041;49.816;20.092;2022-09-24T15:27:33;12.93;;;7.60;;
37141;SDS011;23041;49.816;20.092;2022-09-24T15:30:08;9.98;;;6.70;;
37141;SDS011;23041;49.816;20.092;2022-09-24T15:32:38;7.50;;;5.95;;
37141;SDS011;23041;49.816;20.092;2022-09-24T15:35:05;8.38;;;6.85;;
37141;SDS011;23041;49.816;20.092;2022-09-24T15:37:34;9.70;;;6.78;;
37141;SDS011;23041;49.816;20.092;2022-09-24T15:42:32;8.15;;;6.42;;
37141;SDS011;23041;49.816;20.092;2022-09-24T15:44:59;8.43;;;6.55;;
37141;SDS011;23041;49.816;20.092;2022-09-24T15:47:25;8.30;;;6.35;;
37141;SDS011;23041;49.816;20.092;2022-09-24T15:49:51;8.90;;;7.55;;
37141;SDS011;23041;49.816;20.092;2022-09-24T15:54:55;7.72;;;6.65;;
37141;SDS011;23041;49.816;20.092;2022-09-24T15:57:25;7.75;;;6.95;;
37141;SDS011;23041;49.816;20.092;2022-09-24T15:59:51;11.78;;;9.33;;
37141;SDS011;23041;49.816;20.092;2022-09-24T16:02:30;11.43;;;10.18;;
37141;SDS011;23041;49.816;20.092;2022-09-24T16:04:56;15.38;;;11.25;;
37141;SDS011;23041;49.816;20.092;2022-09-24T16:07:24;14.68;;;11.50;;
37141;SDS011;23041;49.816;20.092;2022-09-24T16:09:51;16.62;;;12.65;;
37141;SDS011;23041;49.816;20.092;2022-09-24T16:12:18;18.50;;;14.30;;
37141;SDS011;23041;49.816;20.092;2022-09-24T16:14:45;18.82;;;13.93;;
37141;SDS011;23041;49.816;20.092;2022-09-24T16:17:12;12.78;;;11.15;;
37141;SDS011;23041;49.816;20.092;2022-09-24T16:19:38;12.55;;;10.32;;
37141;SDS011;23041;49.816;20.092;2022-09-24T16:22:05;11.10;;;9.55;;
37141;SDS011;23041;49.816;20.092;2022-09-24T16:24:31;30.27;;;17.67;;
37141;SDS011;23041;49.816;20.092;2022-09-24T16:26:58;55.25;;;27.48;;
37141;SDS011;23041;49.816;20.092;2022-09-24T16:29:25;38.08;;;19.67;;
37141;SDS011;23041;49.816;20.092;2022-09-24T16:31:52;69.17;;;34.23;;
37141;SDS011;23041;49.816;20.092;2022-09-24T16:34:18;68.97;;;34.45;;
37141;SDS011;23041;49.816;20.092;2022-09-24T16:36:45;46.85;;;26.37;;
37141;SDS011;23041;49.816;20.092;2022-09-24T16:39:12;23.18;;;15.00;;
37141;SDS011;23041;49.816;20.092;2022-09-24T16:41:40;24.18;;;17.50;;
37141;SDS011;23041;49.816;20.092;2022-09-24T16:44:08;15.60;;;12.40;;
37141;SDS011;23041;49.816;20.092;2022-09-24T16:46:37;18.02;;;12.30;;
37141;SDS011;23041;49.816;20.092;2022-09-24T16:49:03;17.12;;;12.45;;
37141;SDS011;23041;49.816;20.092;2022-09-24T16:51:29;29.35;;;19.25;;
37141;SDS011;23041;49.816;20.092;2022-09-24T16:53:55;19.37;;;15.08;;
37141;SDS011;23041;49.816;20.092;2022-09-24T16:56:22;25.30;;;16.87;;
37141;SDS011;23041;49.816;20.092;2022-09-24T16:58:48;24.72;;;17.73;;
37141;SDS011;23041;49.816;20.092;2022-09-24T17:01:16;15.05;;;12.70;;
37141;SDS011;23041;49.816;20.092;2022-09-24T17:03:51;14.68;;;11.53;;
37141;SDS011;23041;49.816;20.092;2022-09-24T17:06:24;16.90;;;11.20;;
37141;SDS011;23041;49.816;20.092;2022-09-24T17:08:53;14.70;;;10.80;;
37141;SDS011;23041;49.816;20.092;2022-09-24T17:11:38;14.55;;;12.28;;
37141;SDS011;23041;49.816;20.092;2022-09-24T17:14:05;15.53;;;10.45;;
37141;SDS011;23041;49.816;20.092;2022-09-24T17:16:33;12.82;;;10.10;;
37141;SDS011;23041;49.816;20.092;2022-09-24T17:19:00;12.23;;;9.85;;